Time;durP1;ratioP1;P1;durP2;ratioP2;P2;SDS_P1;SDS_P2;PMS_P1;PMS_P2;Temp;Humidity;BMP_temperature;BMP_pressure;BME280_temperature;BME280_humidity;BME280_pressure;Samples;Min_cycle;Max_cycle;Signal;HPM_P1;HPM_P2
2022/12/05 00:01:37;;;;;;;0.80;0.80;;;-6.90;99.90;;;;;;5114387;28;20195;-83
2022/12/05 00:04:06;;;;;;;0.90;0.90;;;-7.00;99.90;;;;;;5114167;28;20200;-84
2022/12/05 00:06:33;;;;;;;0.80;0.80;;;-7.00;99.90;;;;;;5113784;28;20199;-82
2022/12/05 00:08:59;;;;;;;0.90;0.90;;;-6.90;99.90;;;;;;5114049;28;20658;-84
2022/12/05 00:11:30;;;;;;;0.80;0.80;;;-6.90;99.90;;;;;;5113846;28;20202;-82
2022/12/05 00:13:57;;;;;;;0.70;0.70;;;-7.00;99.90;;;;;;5106031;28;20208;-84
2022/12/05 00:16:24;;;;;;;0.80;0.80;;;-7.00;99.90;;;;;;5113647;28;20221;-84
2022/12/05 00:18:50;;;;;;;0.80;0.80;;;-7.00;99.90;;;;;;5113798;28;20203;-83
2022/12/05 00:21:22;;;;;;;0.87;0.83;;;-7.00;99.90;;;;;;5112743;28;20260;-83
2022/12/05 00:23:48;;;;;;;0.80;0.80;;;-7.00;99.90;;;;;;5112090;28;20192;-83
2022/12/05 00:26:14;;;;;;;0.80;0.80;;;-7.10;99.90;;;;;;5113546;28;20200;-84
2022/12/05 00:28:40;;;;;;;0.80;0.80;;;-7.10;99.90;;;;;;5095299;28;21371;-84
2022/12/05 00:31:12;;;;;;;0.90;0.90;;;-7.10;99.90;;;;;;5113904;28;20252;-84
2022/12/05 00:33:38;;;;;;;0.83;0.83;;;-7.10;99.90;;;;;;5095548;28;20215;-84
2022/12/05 00:36:07;;;;;;;0.80;0.80;;;-7.00;99.90;;;;;;5113652;28;20670;-83
2022/12/05 00:38:33;;;;;;;0.80;0.80;;;-7.00;99.90;;;;;;5113355;28;20195;-83
2022/12/05 00:41:07;;;;;;;0.80;0.80;;;-7.00;99.90;;;;;;5113540;28;20565;-84
2022/12/05 00:43:33;;;;;;;0.80;0.80;;;-6.90;99.90;;;;;;5113490;28;20194;-85
2022/12/05 00:46:03;;;;;;;0.90;0.90;;;-6.90;99.90;;;;;;5113661;28;20654;-83
2022/12/05 00:48:29;;;;;;;1.57;1.47;;;-6.80;99.90;;;;;;5113134;28;20198;-83
2022/12/05 00:51:12;;;;;;;0.80;0.80;;;-6.80;99.90;;;;;;5113371;28;20670;-83
2022/12/05 00:53:39;;;;;;;0.80;0.80;;;-6.70;99.90;;;;;;5094969;28;20284;-83
2022/12/05 00:56:10;;;;;;;0.90;0.90;;;-6.60;99.90;;;;;;5113513;28;20232;-83
2022/12/05 00:58:36;;;;;;;0.80;0.80;;;-6.60;99.90;;;;;;5094831;28;20195;-83
2022/12/05 01:01:21;;;;;;;1.57;1.47;;;-6.70;99.90;;;;;;5095043;28;20195;-82
2022/12/05 01:03:49;;;;;;;0.90;0.90;;;-6.60;99.90;;;;;;5095157;28;20195;-83
2022/12/05 01:06:15;;;;;;;0.90;0.90;;;-6.60;99.90;;;;;;5113275;28;20195;-82
2022/12/05 01:08:42;;;;;;;0.80;0.80;;;-6.50;99.90;;;;;;5088943;28;20204;-83
2022/12/05 01:11:10;;;;;;;0.90;0.90;;;-6.50;99.90;;;;;;5113480;28;20673;-83
2022/12/05 01:13:36;;;;;;;0.80;0.80;;;-6.40;99.90;;;;;;5113087;28;20191;-82
2022/12/05 01:16:02;;;;;;;0.80;0.80;;;-6.40;99.90;;;;;;5113051;28;20274;-83
2022/12/05 01:18:28;;;;;;;0.80;0.80;;;-6.30;99.90;;;;;;5112902;28;20231;-83
2022/12/05 01:20:54;;;;;;;0.90;0.90;;;-6.30;99.90;;;;;;5115396;28;20203;-83
2022/12/05 01:23:21;;;;;;;0.90;0.90;;;-6.30;99.90;;;;;;5111353;28;20237;-82
2022/12/05 01:25:48;;;;;;;0.90;0.90;;;-6.20;99.90;;;;;;5115955;28;20192;-83
2022/12/05 01:28:15;;;;;;;0.90;0.90;;;-6.20;99.90;;;;;;5117057;28;20583;-82
2022/12/05 01:30:43;;;;;;;0.90;0.90;;;-6.20;99.90;;;;;;5116916;28;20199;-82
2022/12/05 01:33:10;;;;;;;0.90;0.90;;;-6.20;99.90;;;;;;5117512;28;20702;-83
2022/12/05 01:35:37;;;;;;;0.90;0.90;;;-6.20;99.90;;;;;;5116754;28;20209;-82
2022/12/05 01:38:04;;;;;;;0.88;0.88;;;-6.10;99.90;;;;;;5116833;28;20209;-82
2022/12/05 01:40:30;;;;;;;0.90;0.90;;;-6.10;99.90;;;;;;5116564;28;20674;-82
2022/12/05 01:42:56;;;;;;;0.90;0.90;;;-6.10;99.90;;;;;;5116931;28;20196;-83
2022/12/05 01:45:30;;;;;;;0.80;0.80;;;-6.10;99.90;;;;;;5098421;28;20202;-82
2022/12/05 01:47:56;;;;;;;0.90;0.90;;;-6.10;99.90;;;;;;5098575;28;20290;-83
2022/12/05 01:50:22;;;;;;;0.90;0.90;;;-6.10;99.90;;;;;;5098238;28;20196;-83
2022/12/05 01:52:48;;;;;;;0.80;0.80;;;-6.10;99.90;;;;;;5116446;28;20195;-83
2022/12/05 01:55:16;;;;;;;0.80;0.80;;;-6.10;99.90;;;;;;5098108;28;20206;-83
2022/12/05 01:57:44;;;;;;;0.80;0.80;;;-6.10;99.90;;;;;;5116226;28;20253;-83
2022/12/05 02:00:13;;;;;;;0.80;0.80;;;-6.10;99.90;;;;;;5098422;28;20564;-83
2022/12/05 02:02:54;;;;;;;0.80;0.80;;;-6.20;99.90;;;;;;5098174;28;20671;-83
2022/12/05 02:05:31;;;;;;;0.80;0.80;;;-6.10;99.90;;;;;;5116541;28;20203;-82
2022/12/05 02:07:59;;;;;;;0.90;0.90;;;-6.10;99.90;;;;;;5116466;28;20684;-83
2022/12/05 02:10:27;;;;;;;0.80;0.80;;;-6.10;99.90;;;;;;5097920;28;20226;-82
2022/12/05 02:12:53;;;;;;;0.80;0.80;;;-6.10;99.90;;;;;;5098318;28;20207;-83
2022/12/05 02:15:30;;;;;;;0.80;0.80;;;-6.10;99.90;;;;;;5116335;28;20202;-82
2022/12/05 02:18:08;;;;;;;0.80;0.80;;;-6.10;99.90;;;;;;5077677;28;20211;-83
2022/12/05 02:20:42;;;;;;;0.80;0.80;;;-6.10;99.90;;;;;;5077555;28;20196;-83
2022/12/05 02:23:26;;;;;;;0.80;0.80;;;-6.10;99.90;;;;;;5077831;28;20677;-83
2022/12/05 02:26:30;;;;;;;0.80;0.80;;;-6.10;99.90;;;;;;5095669;28;20200;-83
2022/12/05 02:29:32;;;;;;;0.90;0.90;;;-6.10;99.90;;;;;;5095444;28;20196;-83
2022/12/05 02:32:09;;;;;;;0.90;0.90;;;-6.10;99.90;;;;;;5062043;28;20551;-83
2022/12/05 02:35:22;;;;;;;0.80;0.80;;;-6.00;99.90;;;;;;5095218;28;20278;-82
2022/12/05 02:38:25;;;;;;;0.77;0.77;;;-6.10;99.90;;;;;;5013239;28;20215;-83
2022/12/05 02:41:12;;;;;;;0.80;0.80;;;-6.10;99.90;;;;;;5095352;28;20314;-83
2022/12/05 02:43:41;;;;;;;0.90;0.90;;;-6.10;99.90;;;;;;5094859;28;20267;-82
2022/12/05 02:46:15;;;;;;;0.73;0.73;;;-6.00;99.90;;;;;;5095330;28;20674;-82
2022/12/05 02:48:43;;;;;;;0.90;0.90;;;-6.10;99.90;;;;;;5094892;28;20643;-83
2022/12/05 02:51:13;;;;;;;0.80;0.80;;;-6.10;99.90;;;;;;5079430;28;20574;-82
2022/12/05 02:53:43;;;;;;;0.83;0.83;;;-6.10;99.90;;;;;;5097132;28;20264;-82
2022/12/05 02:56:09;;;;;;;0.80;0.80;;;-6.10;99.90;;;;;;5115431;28;20198;-83
2022/12/05 02:58:45;;;;;;;0.80;0.80;;;-6.10;99.90;;;;;;5096733;28;20228;-82
2022/12/05 03:01:11;;;;;;;0.90;0.90;;;-6.10;99.90;;;;;;5110827;28;20194;-83
2022/12/05 03:03:37;;;;;;;0.80;0.80;;;-6.00;99.90;;;;;;5114803;28;20199;-83
2022/12/05 03:06:19;;;;;;;0.80;0.80;;;-6.00;99.90;;;;;;5096939;28;20203;-83
2022/12/05 03:08:52;;;;;;;0.87;0.87;;;-6.00;99.90;;;;;;5096706;28;20559;-84
2022/12/05 03:11:18;;;;;;;0.80;0.80;;;-6.00;99.90;;;;;;5115101;28;20658;-83
2022/12/05 03:13:48;;;;;;;0.80;0.80;;;-6.00;99.90;;;;;;5115094;28;20248;-83
2022/12/05 03:16:20;;;;;;;0.80;0.80;;;-6.00;99.90;;;;;;5115028;28;20187;-83
2022/12/05 03:18:52;;;;;;;0.70;0.70;;;-6.00;99.90;;;;;;5115013;28;20188;-83
2022/12/05 03:21:29;;;;;;;0.73;0.73;;;-6.00;99.90;;;;;;5115225;28;20202;-81
2022/12/05 03:24:10;;;;;;;0.77;0.77;;;-6.00;99.90;;;;;;5096539;28;20214;-82
2022/12/05 03:26:41;;;;;;;0.90;0.90;;;-5.90;99.90;;;;;;5114607;28;20199;-82
2022/12/05 03:29:24;;;;;;;0.80;0.80;;;-5.90;99.90;;;;;;5114851;28;20662;-82
2022/12/05 03:32:09;;;;;;;0.73;0.73;;;-5.90;99.90;;;;;;5113165;28;20616;-82
2022/12/05 03:34:53;;;;;;;0.80;0.80;;;-5.90;99.90;;;;;;5096152;28;20208;-83
2022/12/05 03:37:25;;;;;;;0.80;0.80;;;-5.80;99.90;;;;;;5096274;28;20222;-82
2022/12/05 03:40:05;;;;;;;0.77;0.77;;;-5.80;99.90;;;;;;5114573;28;20293;-83
2022/12/05 03:42:35;;;;;;;0.80;0.80;;;-5.80;99.90;;;;;;5114226;28;20192;-83
2022/12/05 03:45:20;;;;;;;0.80;0.80;;;-5.80;99.90;;;;;;5114592;28;20274;-83
2022/12/05 03:48:06;;;;;;;0.80;0.80;;;-5.80;99.90;;;;;;5114149;28;20203;-83
2022/12/05 03:50:36;;;;;;;0.90;0.90;;;-5.80;99.90;;;;;;5114269;28;20195;-83
2022/12/05 03:53:26;;;;;;;0.87;0.87;;;-5.80;99.90;;;;;;5096130;28;20199;-83
2022/12/05 03:56:05;;;;;;;0.80;0.80;;;-5.70;99.90;;;;;;5096331;28;20200;-83
2022/12/05 03:58:41;;;;;;;0.77;0.77;;;-5.70;99.90;;;;;;5113969;28;20560;-83
2022/12/05 04:01:09;;;;;;;0.80;0.80;;;-5.70;99.90;;;;;;5105008;28;20192;-82
2022/12/05 04:03:41;;;;;;;0.80;0.80;;;-5.70;99.90;;;;;;5113131;28;20196;-83
2022/12/05 04:06:35;;;;;;;0.90;0.90;;;-5.70;99.90;;;;;;5095762;28;20195;-83
2022/12/05 04:09:08;;;;;;;0.80;0.80;;;-5.60;99.90;;;;;;5112895;28;20203;-83
2022/12/05 04:11:40;;;;;;;0.80;0.80;;;-5.70;99.90;;;;;;5095374;28;20226;-83
2022/12/05 04:14:35;;;;;;;0.80;0.80;;;-5.70;99.90;;;;;;5114088;28;20270;-83
2022/12/05 04:17:05;;;;;;;0.80;0.80;;;-5.70;99.90;;;;;;5104834;28;20211;-83
2022/12/05 04:22:28;;;;;;;0.80;0.80;;;-5.70;99.90;;;;;;5113573;28;20215;-82
2022/12/05 04:27:49;;;;;;;0.82;0.82;;;-5.60;99.90;;;;;;5092996;28;20198;-83
2022/12/05 04:30:19;;;;;;;0.80;0.80;;;-5.60;99.90;;;;;;5093449;28;20192;-82
2022/12/05 04:33:01;;;;;;;0.80;0.80;;;-5.60;99.90;;;;;;5093294;28;20698;-83
2022/12/05 04:35:47;;;;;;;0.80;0.80;;;-5.60;99.90;;;;;;5093009;28;20215;-83
2022/12/05 04:38:23;;;;;;;0.82;0.82;;;-5.70;99.90;;;;;;5093254;28;20270;-82
2022/12/05 04:41:02;;;;;;;0.80;0.80;;;-5.70;99.90;;;;;;5093148;28;20589;-83
2022/12/05 04:43:32;;;;;;;1.20;1.20;;;-5.70;99.90;;;;;;5093784;28;20232;-83
2022/12/05 04:46:01;;;;;;;2.72;1.45;;;-5.60;99.90;;;;;;5113609;28;20650;-83
2022/12/05 04:48:27;;;;;;;0.80;0.80;;;-5.60;99.90;;;;;;5113030;28;20197;-83
2022/12/05 04:50:55;;;;;;;1.80;1.70;;;-5.60;99.90;;;;;;5113551;28;20618;-83
2022/12/05 04:53:26;;;;;;;1.55;1.45;;;-5.60;99.90;;;;;;5095533;28;20191;-81
2022/12/05 04:55:54;;;;;;;0.80;0.80;;;-5.60;99.90;;;;;;5112757;28;20218;-83
2022/12/05 04:58:26;;;;;;;1.13;1.13;;;-5.70;99.90;;;;;;5113024;28;20207;-81
2022/12/05 05:01:03;;;;;;;0.80;0.80;;;-5.70;99.90;;;;;;5095175;28;20681;-83
2022/12/05 05:03:33;;;;;;;0.93;0.93;;;-5.70;99.90;;;;;;5113209;28;20195;-84
2022/12/05 05:05:59;;;;;;;0.80;0.80;;;-5.70;99.90;;;;;;5094763;28;20229;-84
2022/12/05 05:08:27;;;;;;;4.95;2.03;;;-5.80;99.90;;;;;;5113532;28;20553;-83
2022/12/05 05:11:16;;;;;;;22.63;3.78;;;-5.80;99.90;;;;;;5113303;28;20198;-84
2022/12/05 05:13:41;;;;;;;0.75;0.75;;;-5.70;99.90;;;;;;5113223;28;20184;-84
2022/12/05 05:16:12;;;;;;;1.53;1.43;;;-5.70;99.90;;;;;;5113209;28;20217;-82
2022/12/05 05:18:37;;;;;;;0.80;0.80;;;-5.80;99.90;;;;;;5094883;28;20543;-84
2022/12/05 05:21:03;;;;;;;1.27;1.20;;;-5.70;99.90;;;;;;5113286;28;20278;-83
2022/12/05 05:23:29;;;;;;;0.80;0.80;;;-5.70;99.90;;;;;;5091169;28;20192;-81
2022/12/05 05:25:55;;;;;;;0.90;0.90;;;-5.80;99.90;;;;;;5092826;28;20210;-83
2022/12/05 05:28:22;;;;;;;1.70;1.60;;;-5.80;99.90;;;;;;5092909;28;20192;-82
2022/12/05 05:30:48;;;;;;;4.60;3.05;;;-5.80;99.90;;;;;;5074418;28;20686;-84
2022/12/05 05:33:14;;;;;;;0.95;0.95;;;-5.80;99.90;;;;;;5092762;28;20196;-84
2022/12/05 05:35:43;;;;;;;1.80;1.20;;;-5.80;99.90;;;;;;5092462;28;20200;-84
2022/12/05 05:38:08;;;;;;;1.93;1.77;;;-5.80;99.90;;;;;;5092867;28;20693;-82
2022/12/05 05:40:36;;;;;;;0.80;0.80;;;-5.80;99.90;;;;;;5100383;28;20215;-82
2022/12/05 05:43:01;;;;;;;0.97;0.97;;;-5.80;99.90;;;;;;5113180;28;20267;-83
2022/12/05 05:45:27;;;;;;;2.73;1.10;;;-5.80;99.90;;;;;;5113362;28;20211;-84
2022/12/05 05:47:53;;;;;;;0.90;0.90;;;-5.80;99.90;;;;;;5094727;28;20206;-84
2022/12/05 05:50:18;;;;;;;0.80;0.80;;;-5.80;99.90;;;;;;5094684;28;20196;-83
2022/12/05 05:52:44;;;;;;;1.00;1.00;;;-5.80;99.90;;;;;;5112736;28;20196;-84
2022/12/05 05:55:10;;;;;;;0.70;0.70;;;-5.80;99.90;;;;;;5112993;28;20213;-83
2022/12/05 05:57:36;;;;;;;0.70;0.70;;;-5.80;99.90;;;;;;5112718;28;20210;-83
2022/12/05 06:00:06;;;;;;;0.80;0.80;;;-5.80;99.90;;;;;;5112771;28;20187;-83
2022/12/05 06:02:33;;;;;;;1.90;1.80;;;-5.80;99.90;;;;;;5093809;28;20199;-83
2022/12/05 06:04:59;;;;;;;1.73;1.57;;;-5.90;99.90;;;;;;5112883;28;20190;-84
2022/12/05 06:07:25;;;;;;;6.03;3.53;;;-5.80;99.90;;;;;;5115439;28;20222;-84
2022/12/05 06:09:50;;;;;;;0.90;0.90;;;-5.90;99.90;;;;;;5116587;28;20199;-83
2022/12/05 06:12:16;;;;;;;1.77;1.27;;;-5.90;99.90;;;;;;5116434;28;20191;-84
2022/12/05 06:14:41;;;;;;;0.70;0.70;;;-5.80;99.90;;;;;;5098000;28;20214;-83
2022/12/05 06:17:07;;;;;;;1.10;1.00;;;-5.80;99.90;;;;;;5098038;28;20218;-84
2022/12/05 06:19:33;;;;;;;0.80;0.80;;;-5.80;99.90;;;;;;5115881;28;20187;-84
2022/12/05 06:21:58;;;;;;;0.90;0.90;;;-5.80;99.90;;;;;;5116028;28;20195;-83
2022/12/05 06:24:24;;;;;;;0.80;0.80;;;-5.80;99.90;;;;;;5101450;28;20283;-83
2022/12/05 06:26:50;;;;;;;0.80;0.80;;;-5.80;99.90;;;;;;5095570;28;20548;-83
2022/12/05 06:29:15;;;;;;;0.80;0.80;;;-5.90;99.90;;;;;;5096034;28;20188;-83
2022/12/05 06:31:41;;;;;;;0.90;0.90;;;-5.90;99.90;;;;;;5077353;28;20196;-83
2022/12/05 06:34:07;;;;;;;0.90;0.90;;;-5.90;99.90;;;;;;5095848;28;20219;-85
2022/12/05 06:36:33;;;;;;;1.27;1.17;;;-5.90;99.90;;;;;;5079476;28;20229;-84
2022/12/05 06:39:09;;;;;;;0.80;0.80;;;-5.90;99.90;;;;;;5077248;28;20283;-84
2022/12/05 06:41:34;;;;;;;0.80;0.80;;;-5.90;99.90;;;;;;5095329;28;20286;-84
2022/12/05 06:44:00;;;;;;;0.90;0.90;;;-5.90;99.90;;;;;;5095371;28;20226;-85
2022/12/05 06:46:26;;;;;;;2.58;1.80;;;-5.90;99.90;;;;;;5076648;28;20212;-84
2022/12/05 06:48:53;;;;;;;0.90;0.90;;;-5.90;99.90;;;;;;5095277;28;20195;-84
2022/12/05 06:51:18;;;;;;;0.80;0.80;;;-5.90;99.90;;;;;;5095070;28;20611;-83
2022/12/05 06:53:45;;;;;;;0.80;0.80;;;-5.90;99.90;;;;;;5095020;28;20245;-83
2022/12/05 06:56:13;;;;;;;0.90;0.90;;;-5.90;99.90;;;;;;5107580;28;20223;-84
2022/12/05 06:58:40;;;;;;;0.88;0.88;;;-5.90;99.90;;;;;;5114455;28;20215;-84
2022/12/05 07:03:59;;;;;;;0.80;0.80;;;-5.80;99.90;;;;;;5115656;28;20198;-83
2022/12/05 07:06:25;;;;;;;0.70;0.70;;;-5.80;99.90;;;;;;5115142;28;20542;-83
2022/12/05 07:08:51;;;;;;;0.80;0.80;;;-5.80;99.90;;;;;;5096771;28;20207;-84
2022/12/05 07:11:16;;;;;;;0.80;0.80;;;-5.80;99.90;;;;;;5115097;28;20187;-84
2022/12/05 07:13:42;;;;;;;0.80;0.80;;;-5.80;99.90;;;;;;5114770;28;20195;-84
2022/12/05 07:16:08;;;;;;;0.80;0.80;;;-5.90;99.90;;;;;;5096676;28;20567;-84
2022/12/05 07:18:35;;;;;;;0.80;0.80;;;-5.90;99.90;;;;;;5095723;28;20245;-83
2022/12/05 07:21:05;;;;;;;0.80;0.80;;;-5.90;99.90;;;;;;5096564;28;20233;-84
2022/12/05 07:23:30;;;;;;;0.80;0.80;;;-6.00;99.90;;;;;;5107496;28;20279;-84
2022/12/05 07:25:59;;;;;;;0.90;0.90;;;-6.00;99.90;;;;;;5076570;28;20413;-84
2022/12/05 07:28:25;;;;;;;0.80;0.80;;;-6.00;99.90;;;;;;5094102;28;20253;-84
2022/12/05 07:31:02;;;;;;;0.80;0.80;;;-5.90;99.90;;;;;;5094495;28;20200;-84
2022/12/05 07:33:28;;;;;;;0.70;0.70;;;-5.90;99.90;;;;;;5087569;28;20554;-85
2022/12/05 07:35:59;;;;;;;0.90;0.90;;;-5.90;99.90;;;;;;5114842;28;20214;-85
2022/12/05 07:38:25;;;;;;;1.10;1.10;;;-5.90;99.90;;;;;;5114602;28;20214;-85
2022/12/05 07:40:50;;;;;;;0.70;0.70;;;-5.90;99.90;;;;;;5114916;28;20589;-85
2022/12/05 07:43:16;;;;;;;3.73;1.67;;;-5.90;99.90;;;;;;5096577;28;20195;-84
2022/12/05 07:45:42;;;;;;;0.80;0.80;;;-5.90;99.90;;;;;;5114706;28;20196;-84
2022/12/05 07:48:07;;;;;;;0.80;0.80;;;-5.80;99.90;;;;;;5115051;28;20195;-84
2022/12/05 07:50:33;;;;;;;0.90;0.90;;;-5.80;99.90;;;;;;5096235;28;20231;-83
2022/12/05 07:52:58;;;;;;;1.92;1.75;;;-5.80;99.90;;;;;;5095936;28;20203;-84
2022/12/05 07:55:24;;;;;;;0.80;0.80;;;-5.80;99.90;;;;;;5114344;28;20195;-83
2022/12/05 07:57:50;;;;;;;1.00;1.00;;;-5.80;99.90;;;;;;5114377;28;20211;-83
2022/12/05 08:00:16;;;;;;;1.00;1.00;;;-5.80;99.90;;;;;;5096258;28;20192;-84
2022/12/05 08:02:42;;;;;;;1.10;1.03;;;-5.70;99.90;;;;;;5113883;28;20288;-84
2022/12/05 08:05:07;;;;;;;0.60;0.60;;;-5.70;99.90;;;;;;5095729;28;20233;-84
2022/12/05 08:07:33;;;;;;;1.00;1.00;;;-5.60;99.90;;;;;;5113976;28;20206;-84
2022/12/05 08:09:59;;;;;;;0.90;0.90;;;-5.60;99.90;;;;;;5114133;28;20192;-84
2022/12/05 08:12:24;;;;;;;0.80;0.80;;;-5.60;99.90;;;;;;5113767;28;20620;-84
2022/12/05 08:14:50;;;;;;;1.08;1.08;;;-5.60;99.90;;;;;;5113969;28;20199;-85
2022/12/05 08:17:16;;;;;;;0.80;0.80;;;-5.50;99.90;;;;;;5095614;28;20635;-85
2022/12/05 08:19:42;;;;;;;0.90;0.90;;;-5.50;99.90;;;;;;5113896;28;20192;-84
2022/12/05 08:22:08;;;;;;;0.73;0.73;;;-5.50;99.90;;;;;;5114144;28;20564;-84
2022/12/05 08:24:34;;;;;;;1.30;1.20;;;-5.50;99.90;;;;;;5097682;28;20249;-85
2022/12/05 08:26:59;;;;;;;0.90;0.90;;;-5.60;99.90;;;;;;5093468;28;20279;-85
2022/12/05 08:29:25;;;;;;;0.90;0.90;;;-5.60;99.90;;;;;;5083210;28;20202;-85
2022/12/05 08:31:51;;;;;;;0.80;0.80;;;-5.60;99.90;;;;;;5113683;28;20274;-85
2022/12/05 08:34:19;;;;;;;2.17;1.97;;;-5.60;99.90;;;;;;5095594;28;20729;-84
2022/12/05 08:36:45;;;;;;;11.73;3.30;;;-5.60;99.90;;;;;;5095286;28;20690;-84
2022/12/05 08:39:14;;;;;;;0.80;0.80;;;-5.50;99.90;;;;;;5113248;28;20187;-84
2022/12/05 08:41:41;;;;;;;0.80;0.80;;;-5.50;99.90;;;;;;5113495;28;20232;-84
2022/12/05 08:44:07;;;;;;;0.70;0.70;;;-5.50;99.90;;;;;;5113567;28;20272;-84
2022/12/05 08:46:36;;;;;;;0.80;0.80;;;-5.50;99.90;;;;;;5113391;28;20664;-84
2022/12/05 08:49:02;;;;;;;1.33;1.25;;;-5.50;99.90;;;;;;5113439;28;20187;-81
2022/12/05 08:51:28;;;;;;;1.02;1.02;;;-5.50;99.90;;;;;;5094023;28;20256;-85
2022/12/05 08:53:55;;;;;;;3.45;1.40;;;-5.40;99.90;;;;;;5113533;28;20188;-84
2022/12/05 08:56:21;;;;;;;0.80;0.80;;;-5.40;99.90;;;;;;5095070;28;20668;-83
2022/12/05 08:58:47;;;;;;;1.25;1.17;;;-5.30;99.90;;;;;;5095298;28;20557;-84
2022/12/05 09:01:16;;;;;;;5.35;2.50;;;-5.30;99.90;;;;;;5113521;28;20179;-84
2022/12/05 09:03:43;;;;;;;4.35;2.28;;;-5.20;99.90;;;;;;5094922;28;20199;-84
2022/12/05 09:06:23;;;;;;;0.80;0.80;;;-5.20;99.90;;;;;;5095258;28;20670;-84
2022/12/05 09:08:53;;;;;;;1.20;1.15;;;-5.20;99.90;;;;;;5095138;28;20198;-83
2022/12/05 09:11:24;;;;;;;0.80;0.80;;;-5.20;99.90;;;;;;5095014;28;20602;-84
2022/12/05 09:13:52;;;;;;;0.80;0.80;;;-5.20;99.90;;;;;;5095319;28;20195;-84
2022/12/05 09:16:23;;;;;;;0.80;0.80;;;-5.20;99.90;;;;;;5113096;28;20191;-84
2022/12/05 09:18:50;;;;;;;0.90;0.90;;;-5.20;99.90;;;;;;5113058;28;20248;-83
2022/12/05 09:21:21;;;;;;;0.80;0.80;;;-5.20;99.90;;;;;;5094957;28;20187;-83
2022/12/05 09:23:47;;;;;;;0.98;0.98;;;-5.20;99.90;;;;;;5103486;28;20187;-84
2022/12/05 09:26:15;;;;;;;1.50;1.40;;;-5.10;99.90;;;;;;5088059;28;20210;-84
2022/12/05 09:28:42;;;;;;;1.00;1.00;;;-5.10;99.90;;;;;;5112908;28;20651;-83
2022/12/05 09:31:10;;;;;;;0.90;0.90;;;-5.10;99.90;;;;;;5113079;28;20198;-84
2022/12/05 09:33:37;;;;;;;1.48;1.38;;;-5.10;99.90;;;;;;5094658;28;20240;-83
2022/12/05 09:36:11;;;;;;;1.33;1.10;;;-5.10;99.90;;;;;;5094668;28;20214;-84
2022/12/05 09:38:38;;;;;;;3.27;2.53;;;-5.00;99.90;;;;;;5112595;28;20687;-83
2022/12/05 09:44:30;;;;;;;2.47;2.20;;;-5.00;99.90;;;;;;5116896;28;20264;-83
2022/12/05 09:47:24;;;;;;;0.80;0.80;;;-5.00;99.90;;;;;;5116093;28;20207;-84
2022/12/05 09:50:05;;;;;;;0.70;0.70;;;-5.00;99.90;;;;;;5060351;28;20662;-83
2022/12/05 09:52:37;;;;;;;1.67;1.33;;;-4.90;99.90;;;;;;5098138;28;20195;-83
2022/12/05 09:55:18;;;;;;;1.27;1.17;;;-4.90;99.90;;;;;;5117371;28;20657;-86
2022/12/05 09:57:56;;;;;;;0.73;0.73;;;-4.90;99.90;;;;;;5117186;28;20199;-84
2022/12/05 10:00:23;;;;;;;1.20;1.20;;;-4.90;99.90;;;;;;5098188;28;20199;-83
2022/12/05 10:02:59;;;;;;;0.90;0.90;;;-4.90;99.90;;;;;;5116863;28;20204;-83
2022/12/05 10:05:47;;;;;;;0.80;0.80;;;-4.80;99.90;;;;;;5098336;28;20191;-88
2022/12/05 10:08:25;;;;;;;1.00;1.00;;;-4.70;99.90;;;;;;5116528;28;20283;-84
2022/12/05 10:11:02;;;;;;;1.00;1.00;;;-4.70;99.90;;;;;;5116307;28;20187;-83
2022/12/05 10:13:33;;;;;;;0.80;0.80;;;-4.70;99.90;;;;;;5116325;28;20210;-83
2022/12/05 10:16:03;;;;;;;0.90;0.90;;;-4.70;99.90;;;;;;5116615;28;20292;-83
2022/12/05 10:18:32;;;;;;;0.90;0.90;;;-4.70;99.90;;;;;;5116450;28;20294;-83
2022/12/05 10:21:09;;;;;;;1.10;1.05;;;-4.70;99.90;;;;;;5117432;27;20262;-83
2022/12/05 10:24:02;;;;;;;1.23;1.17;;;-4.60;99.90;;;;;;5129015;27;20285;-83
2022/12/05 10:26:34;;;;;;;4.25;1.88;;;-4.60;99.90;;;;;;5097728;28;20195;-82
2022/12/05 10:29:00;;;;;;;4.90;3.20;;;-4.60;99.90;;;;;;5116189;28;20211;-83
2022/12/05 10:31:31;;;;;;;1.00;1.00;;;-4.50;99.90;;;;;;5097941;28;20645;-83
2022/12/05 10:34:09;;;;;;;0.93;0.93;;;-4.50;99.90;;;;;;5116221;28;20210;-83
2022/12/05 10:36:34;;;;;;;1.45;1.35;;;-4.50;99.90;;;;;;5097223;28;20229;-83
2022/12/05 10:39:00;;;;;;;3.88;1.70;;;-4.40;99.90;;;;;;5115943;28;20595;-84
2022/12/05 10:41:27;;;;;;;0.80;0.80;;;-4.50;99.90;;;;;;5115301;28;20219;-83
2022/12/05 10:43:55;;;;;;;0.80;0.80;;;-4.50;99.90;;;;;;5115631;28;20199;-83
2022/12/05 10:46:21;;;;;;;2.45;1.67;;;-4.50;99.90;;;;;;5097368;28;20195;-86
2022/12/05 10:48:47;;;;;;;1.13;1.13;;;-4.50;99.90;;;;;;5097466;28;20681;-87
2022/12/05 10:51:16;;;;;;;0.90;0.90;;;-4.50;99.90;;;;;;5097536;28;20195;-88
2022/12/05 10:53:44;;;;;;;0.70;0.70;;;-4.50;99.90;;;;;;5114505;28;20192;-87
2022/12/05 10:56:44;;;;;;;1.10;1.10;;;-4.40;99.90;;;;;;5097467;28;20564;-87
2022/12/05 10:59:22;;;;;;;0.70;0.70;;;-4.40;99.90;;;;;;5097187;28;20663;-87
2022/12/05 11:01:57;;;;;;;3.30;2.00;;;-4.40;99.90;;;;;;5097369;28;20219;-87
2022/12/05 11:04:29;;;;;;;0.80;0.80;;;-4.40;99.90;;;;;;5115432;28;20222;-90
2022/12/05 11:06:56;;;;;;;0.70;0.70;;;-4.30;99.90;;;;;;5097171;28;20226;-88
2022/12/05 11:09:31;;;;;;;0.90;0.90;;;-4.30;99.90;;;;;;5097123;28;20196;-87
2022/12/05 11:12:21;;;;;;;0.80;0.80;;;-4.30;99.90;;;;;;5097483;28;20191;-88
2022/12/05 11:15:01;;;;;;;0.77;0.77;;;-4.30;99.90;;;;;;5097404;28;20717;-88
2022/12/05 11:17:36;;;;;;;1.42;1.33;;;-4.30;99.90;;;;;;5096860;28;20191;-88
2022/12/05 11:20:21;;;;;;;0.80;0.80;;;-4.30;99.90;;;;;;5096998;28;20225;-82
2022/12/05 11:22:53;;;;;;;0.93;0.93;;;-4.40;99.90;;;;;;5113693;28;20646;-82
2022/12/05 11:25:33;;;;;;;0.93;0.93;;;-4.40;99.90;;;;;;5094367;28;20210;-83
2022/12/05 11:28:15;;;;;;;1.13;1.13;;;-4.30;99.90;;;;;;5076244;28;20286;-83
2022/12/05 11:31:03;;;;;;;0.80;0.80;;;-4.30;99.90;;;;;;5094076;28;20688;-79
2022/12/05 11:33:32;;;;;;;0.80;0.80;;;-4.30;99.90;;;;;;5094636;28;20231;-79
2022/12/05 11:36:11;;;;;;;0.70;0.70;;;-4.30;99.90;;;;;;5076088;28;20195;-80
2022/12/05 11:38:39;;;;;;;6.03;2.50;;;-4.20;99.90;;;;;;5100764;28;20678;-79
2022/12/05 11:41:29;;;;;;;7.93;2.85;;;-4.10;99.90;;;;;;5096172;28;20303;-79
2022/12/05 11:44:33;;;;;;;1.00;1.00;;;-4.10;99.90;;;;;;5114602;28;20253;-80
2022/12/05 11:47:14;;;;;;;0.90;0.90;;;-4.10;99.90;;;;;;4995520;28;20198;-79
2022/12/05 11:49:54;;;;;;;0.80;0.80;;;-4.10;99.90;;;;;;5011916;28;20195;-80
2022/12/05 11:52:46;;;;;;;0.75;0.75;;;-4.10;99.90;;;;;;5079995;28;20211;-80
2022/12/05 11:55:28;;;;;;;0.85;0.85;;;-4.10;99.90;;;;;;5096381;28;20226;-79
2022/12/05 11:58:12;;;;;;;3.60;2.88;;;-4.00;99.90;;;;;;5114319;28;20268;-79
2022/12/05 12:01:20;;;;;;;1.65;1.55;;;-4.00;99.90;;;;;;5095790;28;20191;-79
2022/12/05 12:04:18;;;;;;;1.42;1.33;;;-4.00;99.90;;;;;;5057415;28;20199;-79
2022/12/05 12:07:09;;;;;;;0.80;0.80;;;-4.00;99.90;;;;;;5096301;28;20211;-80
2022/12/05 12:10:17;;;;;;;0.80;0.80;;;-4.10;99.90;;;;;;5114047;28;20187;-79
2022/12/05 12:13:27;;;;;;;1.65;1.55;;;-4.10;99.90;;;;;;5086476;28;20214;-79
2022/12/05 12:16:03;;;;;;;0.85;0.85;;;-4.10;99.90;;;;;;5067018;28;20215;-79
2022/12/05 12:19:11;;;;;;;0.80;0.80;;;-4.10;99.90;;;;;;5093408;28;20260;-80
2022/12/05 12:21:52;;;;;;;0.65;0.65;;;-3.90;99.90;;;;;;5075276;28;20568;-80
2022/12/05 12:24:39;;;;;;;0.80;0.80;;;-4.00;99.90;;;;;;5085173;28;20215;-80
2022/12/05 12:27:26;;;;;;;1.42;1.33;;;-4.00;99.90;;;;;;5093727;28;20187;-80
2022/12/05 12:30:12;;;;;;;0.73;0.73;;;-4.00;99.90;;;;;;5075541;28;20199;-79
2022/12/05 12:33:06;;;;;;;1.27;1.20;;;-4.10;99.90;;;;;;5091968;28;20747;-79
2022/12/05 12:35:40;;;;;;;1.10;1.10;;;-4.10;99.90;;;;;;5065539;28;20215;-81
2022/12/05 12:38:28;;;;;;;0.88;0.88;;;-4.10;99.90;;;;;;5113403;28;20210;-79
2022/12/05 12:40:57;;;;;;;0.82;0.82;;;-4.10;99.90;;;;;;5095219;28;20231;-79
2022/12/05 12:44:06;;;;;;;0.70;0.70;;;-4.00;99.90;;;;;;5113353;28;20183;-80
2022/12/05 12:46:52;;;;;;;0.90;0.90;;;-4.10;99.90;;;;;;5113417;28;20191;-79
2022/12/05 12:49:37;;;;;;;0.77;0.77;;;-4.10;99.90;;;;;;5095458;28;20199;-80
2022/12/05 12:52:11;;;;;;;0.80;0.80;;;-4.20;99.90;;;;;;5095358;28;20191;-79
2022/12/05 12:54:49;;;;;;;0.70;0.70;;;-4.20;99.90;;;;;;5095172;28;20196;-79
2022/12/05 12:57:36;;;;;;;5.80;3.40;;;-4.10;99.90;;;;;;5113765;28;20195;-79
2022/12/05 13:00:22;;;;;;;0.80;0.80;;;-4.10;99.90;;;;;;5113541;28;20672;-79
2022/12/05 13:03:12;;;;;;;0.90;0.90;;;-4.20;99.90;;;;;;5095099;28;20197;-79
2022/12/05 13:05:59;;;;;;;0.80;0.80;;;-4.20;99.90;;;;;;5113456;28;20270;-79
2022/12/05 13:08:38;;;;;;;0.90;0.90;;;-4.30;99.90;;;;;;5113319;28;20658;-79
2022/12/05 13:11:08;;;;;;;0.75;0.75;;;-4.30;99.90;;;;;;5113303;28;20218;-79
2022/12/05 13:13:42;;;;;;;0.80;0.80;;;-4.30;99.90;;;;;;5113289;28;20270;-79
2022/12/05 13:16:12;;;;;;;0.70;0.70;;;-4.20;99.90;;;;;;5114510;28;20196;-79
2022/12/05 13:18:38;;;;;;;0.70;0.70;;;-4.10;99.90;;;;;;5117372;28;20880;-80
2022/12/05 13:21:06;;;;;;;0.75;0.75;;;-4.20;99.90;;;;;;5117503;28;20268;-79
2022/12/05 13:23:39;;;;;;;0.80;0.80;;;-4.30;99.90;;;;;;5110079;28;20184;-80
2022/12/05 13:26:10;;;;;;;0.80;0.80;;;-4.30;99.90;;;;;;5097065;28;20195;-79
2022/12/05 13:28:46;;;;;;;0.80;0.80;;;-4.30;99.90;;;;;;5078446;28;20222;-80